Ituzaingo, Argentina
Current Conditions -  °F | °C
As of 2:00 AM on Saturday 20 Dec 2014 (Local Time) from SARP Reporting Station
Clear Clear  
Wind Chill: 77°   Ceiling: Unl
Heat Index: 79°   Visibility: 6mi
Dew Point: 68°   Wind: 3mph
Humidity: 74%   Direction: 110°ESE
Pressure: 29.65"   Gusts: NA
Location:  27.6°S, 56.68°W
Report Text: SARP 200500Z 11003KT CAVOK 25/20 Q1004
Loading
Personal Weather Stations






























Interactive Weather Map New forecast layout! Learn more

10-Day Weather Forecast

Advertisements
Track Severe Weather on mobile